Time;durP1;ratioP1;P1;durP2;ratioP2;P2;SDS_P1;SDS_P2;PMS_P1;PMS_P2;Temp;Humidity;BMP_temperature;BMP_pressure;BME280_temperature;BME280_humidity;BME280_pressure;Samples;Min_cycle;Max_cycle;Signal;HPM_P1;HPM_P2
2022/01/07 00:01:35;;;;;;;6.80;1.05;;;;;;;;;;5032954;28;20049;-75
2022/01/07 00:04:02;;;;;;;16.13;5.22;;;;;;;;;;5033233;28;20108;-75
2022/01/07 00:06:29;;;;;;;8.02;2.17;;;;;;;;;;5034335;28;20486;-74
2022/01/07 00:08:55;;;;;;;8.38;2.03;;;;;;;;;;5034423;28;20057;-74
2022/01/07 00:11:22;;;;;;;11.93;4.03;;;;;;;;;;5034510;28;20053;-76
2022/01/07 00:13:48;;;;;;;13.50;2.78;;;;;;;;;;5034601;28;20085;-74
2022/01/07 00:16:16;;;;;;;9.65;2.53;;;;;;;;;;5033006;28;20054;-75
2022/01/07 00:18:44;;;;;;;8.80;1.30;;;;;;;;;;5034328;28;20111;-74
2022/01/07 00:21:11;;;;;;;6.05;1.33;;;;;;;;;;5034238;28;20053;-74
2022/01/07 00:23:38;;;;;;;8.45;1.00;;;;;;;;;;5032887;28;20562;-74
2022/01/07 00:26:04;;;;;;;10.07;1.65;;;;;;;;;;5033958;28;20049;-74
2022/01/07 00:28:31;;;;;;;8.27;1.65;;;;;;;;;;5033108;28;20053;-74
2022/01/07 00:30:57;;;;;;;16.83;7.15;;;;;;;;;;5033983;28;20080;-74
2022/01/07 00:33:24;;;;;;;9.73;2.95;;;;;;;;;;5034225;28;20049;-74
2022/01/07 00:35:52;;;;;;;7.90;3.10;;;;;;;;;;5034181;28;20103;-74
2022/01/07 00:38:18;;;;;;;9.95;1.60;;;;;;;;;;5033775;28;20497;-75
2022/01/07 00:40:45;;;;;;;7.22;1.27;;;;;;;;;;5032635;28;20414;-75
2022/01/07 00:43:11;;;;;;;7.25;0.82;;;;;;;;;;5033863;28;20090;-75
2022/01/07 00:45:38;;;;;;;6.55;1.42;;;;;;;;;;5033832;28;20172;-75
2022/01/07 00:48:05;;;;;;;7.88;1.20;;;;;;;;;;5032272;28;20053;-75
2022/01/07 00:50:32;;;;;;;9.90;1.67;;;;;;;;;;5033633;28;20088;-75
2022/01/07 00:52:59;;;;;;;7.65;1.60;;;;;;;;;;5033639;28;20055;-75
2022/01/07 00:55:26;;;;;;;4.82;0.73;;;;;;;;;;5033704;28;20049;-75
2022/01/07 00:57:53;;;;;;;8.88;0.90;;;;;;;;;;5034154;28;20053;-75
2022/01/07 01:00:22;;;;;;;8.23;1.00;;;;;;;;;;5033707;28;20042;-74
2022/01/07 01:02:49;;;;;;;6.55;1.17;;;;;;;;;;5033124;28;20565;-75
2022/01/07 01:05:16;;;;;;;5.13;0.68;;;;;;;;;;5033277;28;20061;-75
2022/01/07 01:07:42;;;;;;;9.00;1.42;;;;;;;;;;5033283;28;20203;-75
2022/01/07 01:10:10;;;;;;;8.35;3.05;;;;;;;;;;5033375;28;20115;-75
2022/01/07 01:12:37;;;;;;;9.07;3.15;;;;;;;;;;5033119;28;20535;-75
2022/01/07 01:15:05;;;;;;;4.65;2.08;;;;;;;;;;5033282;28;20091;-76
2022/01/07 01:17:32;;;;;;;4.95;1.67;;;;;;;;;;5019183;28;20095;-75
2022/01/07 01:19:58;;;;;;;3.60;1.70;;;;;;;;;;5032950;28;20570;-75
2022/01/07 01:22:25;;;;;;;5.15;0.93;;;;;;;;;;5033351;28;20065;-75
2022/01/07 01:24:51;;;;;;;1.65;0.20;;;;;;;;;;5033265;28;20091;-75
2022/01/07 01:27:18;;;;;;;2.47;0.40;;;;;;;;;;5032975;28;20413;-75
2022/01/07 01:29:44;;;;;;;2.03;0.28;;;;;;;;;;5032041;28;20046;-75
2022/01/07 01:32:11;;;;;;;2.00;0.22;;;;;;;;;;5032735;28;20061;-75
2022/01/07 01:34:37;;;;;;;2.83;0.22;;;;;;;;;;5032968;28;20127;-75
2022/01/07 01:37:04;;;;;;;2.25;0.10;;;;;;;;;;5032305;28;20053;-75
2022/01/07 01:39:30;;;;;;;1.48;0.30;;;;;;;;;;5032733;28;20049;-75
2022/01/07 01:41:57;;;;;;;3.22;0.30;;;;;;;;;;5032940;28;20127;-75
2022/01/07 01:44:24;;;;;;;2.95;0.20;;;;;;;;;;5031649;28;20053;-75
2022/01/07 01:46:50;;;;;;;1.45;0.20;;;;;;;;;;5032431;28;20624;-75
2022/01/07 01:49:17;;;;;;;3.08;0.30;;;;;;;;;;5032507;28;20563;-75
2022/01/07 01:51:43;;;;;;;3.15;0.95;;;;;;;;;;5032563;28;20049;-75
2022/01/07 01:54:10;;;;;;;3.40;0.30;;;;;;;;;;5032435;28;20050;-75
2022/01/07 01:56:37;;;;;;;3.00;0.90;;;;;;;;;;5032568;28;20041;-75
2022/01/07 01:59:03;;;;;;;3.42;0.35;;;;;;;;;;5032478;28;20053;-75
2022/01/07 02:01:29;;;;;;;2.42;0.30;;;;;;;;;;5030840;28;20061;-76
2022/01/07 02:03:56;;;;;;;1.98;0.20;;;;;;;;;;5032546;28;20111;-75
2022/01/07 02:06:23;;;;;;;2.25;0.28;;;;;;;;;;5032272;28;20099;-75
2022/01/07 02:08:50;;;;;;;2.88;0.30;;;;;;;;;;5032096;28;20072;-75
2022/01/07 02:11:16;;;;;;;2.33;0.40;;;;;;;;;;5030886;28;20103;-75
2022/01/07 02:13:44;;;;;;;3.95;0.40;;;;;;;;;;5032063;28;20049;-75
2022/01/07 02:16:10;;;;;;;;;;;;;;;;;;5032733;28;20099;-75
2022/01/07 02:18:37;;;;;;;3.38;0.45;;;;;;;;;;5031148;28;19920;-75
2022/01/07 02:21:04;;;;;;;3.83;0.40;;;;;;;;;;5030317;28;20100;-75
2022/01/07 02:23:32;;;;;;;3.13;0.63;;;;;;;;;;5031895;28;20164;-75
2022/01/07 02:25:59;;;;;;;4.95;0.80;;;;;;;;;;5030641;28;20095;-75
2022/01/07 02:28:26;;;;;;;3.17;0.35;;;;;;;;;;5031719;28;20053;-75
2022/01/07 02:30:53;;;;;;;6.18;0.30;;;;;;;;;;5032097;28;20096;-75
2022/01/07 02:33:19;;;;;;;3.13;0.50;;;;;;;;;;5030512;28;20084;-75
2022/01/07 02:35:46;;;;;;;18.20;1.20;;;;;;;;;;5031902;28;20111;-75
2022/01/07 02:38:16;;;;;;;2.25;0.38;;;;;;;;;;5031760;28;20448;-75
2022/01/07 02:40:42;;;;;;;4.35;1.13;;;;;;;;;;5031674;28;20069;-75
2022/01/07 02:43:09;;;;;;;4.88;0.55;;;;;;;;;;5030406;28;20500;-75
2022/01/07 02:45:35;;;;;;;2.55;0.40;;;;;;;;;;5030710;28;20049;-75
2022/01/07 02:48:03;;;;;;;2.97;0.85;;;;;;;;;;5030425;28;20091;-75
2022/01/07 02:50:31;;;;;;;3.70;0.40;;;;;;;;;;5031770;28;20095;-75
2022/01/07 02:52:58;;;;;;;2.85;0.60;;;;;;;;;;5030389;28;20041;-75
2022/01/07 02:55:25;;;;;;;3.13;0.40;;;;;;;;;;5031585;28;20103;-74
2022/01/07 02:57:52;;;;;;;1.35;0.20;;;;;;;;;;5031679;28;20042;-75
2022/01/07 03:00:19;;;;;;;3.47;0.40;;;;;;;;;;5031748;28;20085;-75
2022/01/07 03:02:47;;;;;;;6.93;0.47;;;;;;;;;;5031384;28;20061;-75
2022/01/07 03:05:13;;;;;;;1.02;0.30;;;;;;;;;;5031463;28;20111;-75
2022/01/07 03:07:41;;;;;;;2.88;0.22;;;;;;;;;;5031432;28;20077;-75
2022/01/07 03:10:08;;;;;;;3.33;0.50;;;;;;;;;;5031297;28;20111;-75
2022/01/07 03:12:36;;;;;;;1.98;0.35;;;;;;;;;;5031382;28;20123;-75
2022/01/07 03:15:04;;;;;;;0.88;0.20;;;;;;;;;;5030292;28;20053;-74
2022/01/07 03:17:30;;;;;;;4.13;0.65;;;;;;;;;;5031666;28;20046;-74
2022/01/07 03:19:57;;;;;;;4.38;0.60;;;;;;;;;;5031332;28;20103;-74
2022/01/07 03:22:23;;;;;;;2.40;0.50;;;;;;;;;;5030439;28;20110;-75
2022/01/07 03:24:50;;;;;;;1.48;0.32;;;;;;;;;;5031296;28;20050;-74
2022/01/07 03:27:16;;;;;;;5.10;0.90;;;;;;;;;;5031499;28;20171;-75
2022/01/07 03:29:43;;;;;;;3.22;0.35;;;;;;;;;;5030019;28;20057;-74
2022/01/07 03:32:10;;;;;;;3.63;1.10;;;;;;;;;;5031198;28;20050;-75
2022/01/07 03:34:36;;;;;;;4.20;0.30;;;;;;;;;;5030284;28;20088;-75
2022/01/07 03:37:03;;;;;;;2.88;0.30;;;;;;;;;;5031169;28;20093;-75
2022/01/07 03:39:29;;;;;;;2.00;0.38;;;;;;;;;;5031369;28;20103;-75
2022/01/07 03:41:56;;;;;;;2.75;0.80;;;;;;;;;;5031436;28;20053;-75
2022/01/07 03:44:22;;;;;;;2.17;0.28;;;;;;;;;;5031047;28;20140;-75
2022/01/07 03:46:48;;;;;;;0.75;0.20;;;;;;;;;;5031073;28;20489;-75
2022/01/07 03:49:15;;;;;;;4.15;0.47;;;;;;;;;;5030970;28;20103;-75
2022/01/07 03:51:42;;;;;;;3.35;0.40;;;;;;;;;;5030939;28;20547;-75
2022/01/07 03:54:08;;;;;;;2.92;0.30;;;;;;;;;;5030941;28;20489;-75
2022/01/07 03:56:34;;;;;;;1.17;0.20;;;;;;;;;;5031048;28;20046;-75
2022/01/07 03:59:01;;;;;;;2.25;0.32;;;;;;;;;;5031192;28;20053;-75
2022/01/07 04:01:27;;;;;;;3.75;0.40;;;;;;;;;;5033407;28;20489;-74
2022/01/07 04:03:54;;;;;;;2.10;0.82;;;;;;;;;;5034956;28;20053;-74
2022/01/07 04:06:21;;;;;;;1.30;0.22;;;;;;;;;;5034452;28;20041;-74
2022/01/07 04:08:48;;;;;;;2.08;0.47;;;;;;;;;;5033402;28;20119;-74
2022/01/07 04:11:15;;;;;;;2.35;0.30;;;;;;;;;;5033154;28;20045;-74
2022/01/07 04:13:41;;;;;;;2.88;0.32;;;;;;;;;;5034340;28;20050;-75
2022/01/07 04:16:08;;;;;;;3.47;0.40;;;;;;;;;;5034393;28;20053;-75
2022/01/07 04:18:34;;;;;;;3.58;0.57;;;;;;;;;;5034586;28;20120;-75
2022/01/07 04:21:01;;;;;;;5.20;0.45;;;;;;;;;;5034109;28;20501;-75
2022/01/07 04:23:27;;;;;;;6.03;0.60;;;;;;;;;;5034440;28;20049;-75
2022/01/07 04:25:54;;;;;;;4.40;0.50;;;;;;;;;;5034418;28;20099;-75
2022/01/07 04:28:20;;;;;;;5.13;0.50;;;;;;;;;;5034343;28;20084;-75
2022/01/07 04:30:47;;;;;;;4.28;0.95;;;;;;;;;;5032873;28;20046;-74
2022/01/07 04:33:15;;;;;;;6.30;0.90;;;;;;;;;;5033984;28;20049;-74
2022/01/07 04:35:42;;;;;;;4.07;1.25;;;;;;;;;;5033846;28;20091;-74
2022/01/07 04:38:09;;;;;;;5.75;0.60;;;;;;;;;;5032947;28;20452;-74
2022/01/07 04:40:35;;;;;;;4.57;0.52;;;;;;;;;;5033758;28;20498;-74
2022/01/07 04:43:03;;;;;;;5.15;0.75;;;;;;;;;;5033886;28;20112;-74
2022/01/07 04:45:29;;;;;;;3.47;0.50;;;;;;;;;;5033718;28;20053;-74
2022/01/07 04:47:56;;;;;;;2.65;0.40;;;;;;;;;;5032443;28;20065;-74
2022/01/07 04:50:23;;;;;;;3.70;0.40;;;;;;;;;;5033639;28;20073;-74
2022/01/07 04:52:50;;;;;;;6.63;0.83;;;;;;;;;;5033541;28;20041;-74
2022/01/07 04:55:18;;;;;;;4.38;0.40;;;;;;;;;;5033912;28;20108;-74
2022/01/07 04:57:45;;;;;;;2.28;0.45;;;;;;;;;;5033712;28;20046;-74
2022/01/07 05:00:12;;;;;;;4.45;0.60;;;;;;;;;;5033489;28;20563;-74
2022/01/07 05:02:38;;;;;;;7.32;0.30;;;;;;;;;;5019753;28;20066;-74
2022/01/07 05:05:05;;;;;;;3.28;1.17;;;;;;;;;;5033382;28;20053;-75
2022/01/07 05:07:33;;;;;;;5.40;0.57;;;;;;;;;;5033641;28;20127;-75
2022/01/07 05:10:00;;;;;;;3.47;1.23;;;;;;;;;;5033442;28;20045;-74
2022/01/07 05:12:26;;;;;;;2.22;0.40;;;;;;;;;;5032321;28;20087;-74
2022/01/07 05:14:53;;;;;;;3.05;0.80;;;;;;;;;;5031932;28;20045;-75
2022/01/07 05:17:19;;;;;;;4.38;1.13;;;;;;;;;;5033173;28;20456;-75
2022/01/07 05:19:46;;;;;;;5.80;1.30;;;;;;;;;;5033332;28;20077;-75
2022/01/07 05:22:12;;;;;;;6.57;1.35;;;;;;;;;;5033257;28;20099;-75
2022/01/07 05:24:38;;;;;;;8.10;2.55;;;;;;;;;;5033103;28;20131;-74
2022/01/07 05:27:05;;;;;;;8.48;1.50;;;;;;;;;;5033194;28;20053;-74
2022/01/07 05:29:35;;;;;;;4.13;1.98;;;;;;;;;;5033217;28;20046;-75
2022/01/07 05:32:03;;;;;;;2.90;0.65;;;;;;;;;;5032710;28;20103;-75
2022/01/07 05:34:29;;;;;;;5.00;0.60;;;;;;;;;;5032883;28;20099;-74
2022/01/07 05:36:56;;;;;;;5.38;0.73;;;;;;;;;;5033105;28;20041;-74
2022/01/07 05:39:23;;;;;;;5.03;0.60;;;;;;;;;;5031512;28;20087;-74
2022/01/07 05:41:49;;;;;;;8.43;0.70;;;;;;;;;;5032709;28;20115;-73
2022/01/07 05:44:16;;;;;;;1.58;0.55;;;;;;;;;;5032582;28;20045;-73
2022/01/07 05:46:42;;;;;;;7.82;1.38;;;;;;;;;;5032507;28;20095;-74
2022/01/07 05:49:09;;;;;;;8.02;1.13;;;;;;;;;;5032763;28;20128;-74
2022/01/07 05:51:36;;;;;;;7.05;0.47;;;;;;;;;;5032566;28;20554;-74
2022/01/07 05:54:02;;;;;;;8.05;0.60;;;;;;;;;;5032492;28;20050;-74
2022/01/07 05:56:29;;;;;;;3.35;0.52;;;;;;;;;;5032534;28;20096;-74
2022/01/07 05:58:55;;;;;;;3.03;0.47;;;;;;;;;;5031137;28;20081;-74
2022/01/07 06:01:22;;;;;;;3.75;0.50;;;;;;;;;;5032357;28;20095;-75
2022/01/07 06:03:48;;;;;;;4.63;0.50;;;;;;;;;;5032682;28;20060;-74
2022/01/07 06:06:15;;;;;;;2.28;0.52;;;;;;;;;;5032248;28;20041;-75
2022/01/07 06:08:41;;;;;;;6.53;1.35;;;;;;;;;;5031092;28;20049;-76
2022/01/07 06:11:08;;;;;;;4.28;0.80;;;;;;;;;;5032178;28;20049;-75
2022/01/07 06:13:34;;;;;;;7.30;1.83;;;;;;;;;;5032268;28;20045;-75
2022/01/07 06:16:01;;;;;;;7.72;3.40;;;;;;;;;;5032343;28;20092;-74
2022/01/07 06:18:27;;;;;;;6.75;2.90;;;;;;;;;;5031960;28;20053;-74
2022/01/07 06:20:54;;;;;;;3.40;0.90;;;;;;;;;;5032103;28;20107;-75
2022/01/07 06:23:20;;;;;;;6.72;1.00;;;;;;;;;;5031638;28;20462;-75
2022/01/07 06:25:49;;;;;;;3.42;0.57;;;;;;;;;;5031969;28;20061;-75
2022/01/07 06:28:16;;;;;;;3.47;0.75;;;;;;;;;;5031813;28;20107;-75
2022/01/07 06:30:43;;;;;;;4.38;1.10;;;;;;;;;;5032041;28;20050;-75
2022/01/07 06:33:09;;;;;;;6.97;0.60;;;;;;;;;;5032076;28;20127;-74
2022/01/07 06:35:36;;;;;;;7.05;0.70;;;;;;;;;;5031873;28;20084;-75
2022/01/07 06:38:03;;;;;;;4.43;0.90;;;;;;;;;;5031869;28;20087;-75
2022/01/07 06:40:29;;;;;;;4.65;1.52;;;;;;;;;;5031975;28;20079;-76
2022/01/07 06:42:56;;;;;;;5.13;1.40;;;;;;;;;;5031701;28;20460;-76
2022/01/07 06:45:22;;;;;;;3.90;0.52;;;;;;;;;;5031668;28;20079;-76
2022/01/07 06:47:49;;;;;;;8.90;1.00;;;;;;;;;;5031844;28;20054;-76
2022/01/07 06:50:15;;;;;;;10.82;1.42;;;;;;;;;;5031968;28;20049;-75
2022/01/07 06:52:42;;;;;;;9.43;2.08;;;;;;;;;;5031572;28;20115;-76
2022/01/07 06:55:08;;;;;;;10.07;1.88;;;;;;;;;;5031799;28;20448;-75
2022/01/07 06:57:35;;;;;;;5.85;1.45;;;;;;;;;;5031412;28;20101;-75
2022/01/07 07:00:02;;;;;;;5.22;1.42;;;;;;;;;;5031830;28;20041;-75
2022/01/07 07:02:29;;;;;;;12.05;1.20;;;;;;;;;;5031402;28;20402;-75
2022/01/07 07:04:55;;;;;;;6.30;0.68;;;;;;;;;;5030289;28;20103;-75
2022/01/07 07:07:22;;;;;;;6.07;1.13;;;;;;;;;;5031579;28;20049;-75
2022/01/07 07:09:48;;;;;;;3.67;0.90;;;;;;;;;;5030077;28;20041;-75
2022/01/07 07:12:15;;;;;;;8.38;1.67;;;;;;;;;;5031575;28;20068;-74
2022/01/07 07:14:41;;;;;;;5.30;1.38;;;;;;;;;;5024216;28;20493;-75
2022/01/07 07:17:08;;;;;;;7.15;1.40;;;;;;;;;;5011242;28;20108;-75
2022/01/07 07:19:34;;;;;;;8.38;1.42;;;;;;;;;;5011152;28;20046;-74
2022/01/07 07:22:01;;;;;;;7.17;1.47;;;;;;;;;;5011155;28;20137;-73
2022/01/07 07:24:28;;;;;;;5.75;2.13;;;;;;;;;;5026162;28;20053;-74
2022/01/07 07:26:54;;;;;;;8.45;1.48;;;;;;;;;;5012682;28;20041;-76
2022/01/07 07:29:21;;;;;;;5.97;1.65;;;;;;;;;;5030834;28;20571;-74
2022/01/07 07:31:50;;;;;;;5.13;0.90;;;;;;;;;;5030678;28;20054;-75
2022/01/07 07:36:58;;;;;;;3.50;0.70;;;;;;;;;;5019992;28;20045;-75
2022/01/07 07:39:25;;;;;;;4.57;1.10;;;;;;;;;;5035054;28;20519;-75
2022/01/07 07:41:51;;;;;;;1.65;0.40;;;;;;;;;;5034912;28;20559;-75
2022/01/07 07:44:22;;;;;;;2.85;0.82;;;;;;;;;;5034892;28;20064;-75
2022/01/07 07:46:48;;;;;;;1.75;0.52;;;;;;;;;;5034819;28;20193;-75
2022/01/07 07:49:15;;;;;;;2.05;0.60;;;;;;;;;;5033396;28;20119;-75
2022/01/07 07:51:41;;;;;;;1.50;0.80;;;;;;;;;;5034337;28;20057;-74
2022/01/07 07:54:08;;;;;;;1.60;0.55;;;;;;;;;;5034889;28;20061;-75
2022/01/07 07:56:35;;;;;;;3.50;0.90;;;;;;;;;;5034571;28;20049;-75
2022/01/07 07:59:01;;;;;;;3.50;0.50;;;;;;;;;;5033745;28;20132;-74
2022/01/07 08:01:28;;;;;;;3.85;0.70;;;;;;;;;;5033960;28;20119;-74
2022/01/07 08:03:54;;;;;;;4.20;1.00;;;;;;;;;;5033857;28;20053;-75
2022/01/07 08:06:21;;;;;;;4.28;0.90;;;;;;;;;;5034523;28;20093;-76
2022/01/07 08:08:48;;;;;;;6.38;0.90;;;;;;;;;;5033510;28;20058;-75
2022/01/07 08:11:15;;;;;;;2.78;0.40;;;;;;;;;;5033003;28;20072;-75
2022/01/07 08:16:27;;;;;;;5.88;0.50;;;;;;;;;;5034204;28;20378;-75
2022/01/07 08:18:54;;;;;;;4.68;0.70;;;;;;;;;;5033822;28;20045;-75
2022/01/07 08:21:24;;;;;;;4.43;0.98;;;;;;;;;;5034018;28;20057;-75
2022/01/07 08:23:51;;;;;;;4.90;1.20;;;;;;;;;;5033620;28;20540;-75
2022/01/07 08:26:18;;;;;;;6.22;1.02;;;;;;;;;;5032839;28;20057;-74
2022/01/07 08:28:49;;;;;;;6.63;0.90;;;;;;;;;;5033982;28;20479;-75
2022/01/07 08:36:29;;;;;;;6.25;1.15;;;;;;;;;;5033831;28;20050;-75
2022/01/07 08:38:55;;;;;;;3.88;1.05;;;;;;;;;;5033441;28;20379;-75
2022/01/07 08:41:23;;;;;;;11.82;2.13;;;;;;;;;;5033205;28;20050;-73
2022/01/07 08:43:49;;;;;;;7.80;1.52;;;;;;;;;;5033702;28;20045;-75
2022/01/07 08:46:16;;;;;;;12.40;5.82;;;;;;;;;;5033606;28;20108;-75
2022/01/07 08:48:43;;;;;;;27.08;9.80;;;;;;;;;;5033840;28;20049;-75
2022/01/07 08:51:09;;;;;;;8.15;1.15;;;;;;;;;;5033710;28;20084;-75
2022/01/07 08:53:36;;;;;;;5.18;1.20;;;;;;;;;;5033234;28;20131;-74
2022/01/07 08:56:03;;;;;;;5.05;0.93;;;;;;;;;;5033089;28;20045;-74
2022/01/07 08:58:30;;;;;;;4.57;0.93;;;;;;;;;;5032532;28;20050;-75
2022/01/07 09:00:56;;;;;;;7.07;2.08;;;;;;;;;;5033438;28;20283;-75
2022/01/07 09:03:23;;;;;;;10.55;2.60;;;;;;;;;;5033189;28;20068;-74
2022/01/07 09:05:50;;;;;;;10.25;5.15;;;;;;;;;;5031701;28;20103;-74
2022/01/07 09:08:16;;;;;;;8.60;4.25;;;;;;;;;;5031769;28;20050;-70
2022/01/07 09:10:43;;;;;;;6.60;2.42;;;;;;;;;;5032748;28;20058;-69
2022/01/07 09:13:10;;;;;;;9.30;3.60;;;;;;;;;;5033060;28;20375;-69
2022/01/07 09:15:37;;;;;;;6.35;1.30;;;;;;;;;;5032537;28;20095;-70
2022/01/07 09:18:10;;;;;;;2.33;0.90;;;;;;;;;;5032769;28;20119;-69
2022/01/07 09:20:38;;;;;;;7.43;1.20;;;;;;;;;;5032975;28;20115;-69
2022/01/07 09:23:04;;;;;;;3.00;1.20;;;;;;;;;;5032660;28;20103;-68
2022/01/07 09:25:31;;;;;;;7.72;1.10;;;;;;;;;;5032735;28;20076;-69
2022/01/07 09:27:57;;;;;;;2.47;0.70;;;;;;;;;;5033209;28;20045;-69
2022/01/07 09:30:24;;;;;;;4.13;0.70;;;;;;;;;;5033207;28;20050;-69
2022/01/07 09:32:51;;;;;;;7.13;1.27;;;;;;;;;;5032820;28;20610;-71
2022/01/07 09:35:17;;;;;;;7.95;1.33;;;;;;;;;;5032060;28;20071;-72
2022/01/07 09:37:44;;;;;;;2.20;0.90;;;;;;;;;;5032248;28;20096;-72
2022/01/07 09:40:11;;;;;;;5.22;1.23;;;;;;;;;;5031068;28;20542;-73
2022/01/07 09:42:38;;;;;;;8.55;1.15;;;;;;;;;;5030893;28;20459;-73
2022/01/07 09:45:05;;;;;;;4.47;1.50;;;;;;;;;;5031544;28;20580;-73
2022/01/07 09:47:32;;;;;;;5.32;1.30;;;;;;;;;;5032322;28;20049;-73
2022/01/07 09:50:04;;;;;;;4.65;0.85;;;;;;;;;;5032312;28;20060;-72
2022/01/07 09:52:31;;;;;;;4.80;1.65;;;;;;;;;;5017935;28;20054;-73
2022/01/07 09:54:57;;;;;;;7.97;1.35;;;;;;;;;;5030392;28;20060;-72
2022/01/07 09:57:24;;;;;;;3.15;0.90;;;;;;;;;;5031828;28;20107;-73
2022/01/07 09:59:51;;;;;;;5.65;1.35;;;;;;;;;;5029268;28;20108;-72
2022/01/07 10:02:17;;;;;;;7.72;3.28;;;;;;;;;;5031159;28;20092;-72
2022/01/07 10:04:44;;;;;;;6.13;2.42;;;;;;;;;;5015934;28;20046;-73
2022/01/07 10:07:14;;;;;;;3.55;0.85;;;;;;;;;;5030708;28;20057;-72
2022/01/07 10:09:41;;;;;;;5.47;2.10;;;;;;;;;;5032100;28;20057;-72
2022/01/07 10:12:08;;;;;;;5.65;1.05;;;;;;;;;;5032385;28;20057;-72
2022/01/07 10:14:36;;;;;;;8.70;2.05;;;;;;;;;;5031037;28;20075;-73
2022/01/07 10:17:06;;;;;;;6.72;2.22;;;;;;;;;;5030710;28;20099;-72
2022/01/07 10:19:34;;;;;;;27.50;14.70;;;;;;;;;;5029179;28;20041;-73
2022/01/07 10:22:06;;;;;;;15.13;6.53;;;;;;;;;;5013662;28;20041;-72
2022/01/07 10:24:50;;;;;;;12.77;2.80;;;;;;;;;;5017120;28;20064;-73
2022/01/07 10:27:17;;;;;;;8.85;2.85;;;;;;;;;;5029423;28;20045;-73
2022/01/07 10:29:44;;;;;;;6.68;2.35;;;;;;;;;;5030622;28;20107;-73
2022/01/07 10:32:30;;;;;;;15.05;3.80;;;;;;;;;;5028786;28;20103;-72
2022/01/07 10:35:06;;;;;;;6.93;2.90;;;;;;;;;;5031810;28;20052;-71
2022/01/07 10:37:33;;;;;;;15.90;6.60;;;;;;;;;;5031689;28;20049;-71
2022/01/07 10:40:00;;;;;;;25.52;7.70;;;;;;;;;;5027093;28;20045;-72
2022/01/07 10:42:27;;;;;;;13.95;4.22;;;;;;;;;;5021653;28;20046;-72
2022/01/07 10:45:00;;;;;;;20.58;8.27;;;;;;;;;;5020342;28;20050;-72
2022/01/07 10:47:30;;;;;;;18.08;8.48;;;;;;;;;;5022872;28;20057;-72
2022/01/07 10:50:16;;;;;;;13.82;5.40;;;;;;;;;;5022408;28;20049;-72
2022/01/07 10:52:43;;;;;;;7.50;4.38;;;;;;;;;;5027075;28;20057;-72
2022/01/07 10:55:13;;;;;;;5.82;2.78;;;;;;;;;;5031439;28;20111;-71
2022/01/07 10:57:41;;;;;;;8.30;4.80;;;;;;;;;;5024262;28;20107;-72
2022/01/07 11:00:11;;;;;;;10.95;7.55;;;;;;;;;;5016393;28;20046;-71
2022/01/07 11:02:39;;;;;;;6.55;4.53;;;;;;;;;;5031330;28;20501;-72
2022/01/07 11:05:07;;;;;;;8.38;4.15;;;;;;;;;;5029657;28;20077;-72
2022/01/07 11:07:33;;;;;;;5.77;3.20;;;;;;;;;;5027138;28;20100;-72
2022/01/07 11:10:00;;;;;;;4.20;2.00;;;;;;;;;;5032306;28;20049;-72
2022/01/07 11:12:27;;;;;;;5.47;1.35;;;;;;;;;;5035857;28;20049;-72
2022/01/07 11:14:54;;;;;;;3.70;1.13;;;;;;;;;;5035579;28;20049;-72
2022/01/07 11:17:21;;;;;;;5.00;1.25;;;;;;;;;;5035743;28;20095;-73
2022/01/07 11:19:52;;;;;;;5.95;0.77;;;;;;;;;;5035266;28;20041;-73
2022/01/07 11:22:19;;;;;;;4.40;0.80;;;;;;;;;;5035313;28;20053;-72
2022/01/07 11:24:47;;;;;;;7.78;1.63;;;;;;;;;;5033633;28;20440;-70
2022/01/07 11:27:15;;;;;;;4.30;1.00;;;;;;;;;;5035328;28;20095;-73
2022/01/07 11:30:06;;;;;;;7.25;1.10;;;;;;;;;;5035323;28;20054;-72
2022/01/07 11:32:32;;;;;;;5.57;0.73;;;;;;;;;;5034525;28;20057;-72
2022/01/07 11:35:20;;;;;;;3.20;0.80;;;;;;;;;;5034218;28;20536;-72
2022/01/07 11:37:48;;;;;;;7.57;1.00;;;;;;;;;;5034913;28;20854;-73
2022/01/07 11:40:27;;;;;;;6.22;0.80;;;;;;;;;;5024810;28;20050;-73
2022/01/07 11:42:54;;;;;;;7.82;1.45;;;;;;;;;;5033386;28;20464;-72
2022/01/07 11:45:26;;;;;;;6.80;1.48;;;;;;;;;;5034498;28;20084;-72
2022/01/07 11:47:54;;;;;;;6.53;0.77;;;;;;;;;;5034140;28;20164;-72
2022/01/07 11:50:20;;;;;;;5.75;0.85;;;;;;;;;;5030166;28;20046;-73
2022/01/07 11:53:05;;;;;;;6.43;1.00;;;;;;;;;;5030343;28;20045;-73
2022/01/07 11:55:32;;;;;;;5.63;0.70;;;;;;;;;;5033087;28;20107;-73
2022/01/07 11:58:03;;;;;;;7.57;1.00;;;;;;;;;;5032796;28;20460;-73
2022/01/07 12:01:05;;;;;;;5.13;1.10;;;;;;;;;;5034223;28;20107;-73
2022/01/07 12:03:32;;;;;;;9.15;1.50;;;;;;;;;;5013066;28;20050;-72
2022/01/07 12:05:59;;;;;;;4.55;1.10;;;;;;;;;;5022424;28;20042;-72
2022/01/07 12:08:38;;;;;;;7.43;1.45;;;;;;;;;;5030057;28;20037;-73
2022/01/07 12:11:09;;;;;;;8.15;1.10;;;;;;;;;;5031538;28;20100;-72
2022/01/07 12:13:39;;;;;;;4.72;1.05;;;;;;;;;;5032514;28;20050;-72
2022/01/07 12:16:08;;;;;;;4.32;0.95;;;;;;;;;;5034051;28;20045;-72
2022/01/07 12:18:35;;;;;;;9.15;1.33;;;;;;;;;;5032470;28;20132;-73
2022/01/07 12:21:02;;;;;;;5.93;2.00;;;;;;;;;;5032712;28;20049;-72
2022/01/07 12:23:28;;;;;;;5.30;1.58;;;;;;;;;;5032778;28;20054;-74
2022/01/07 12:25:56;;;;;;;5.07;1.30;;;;;;;;;;5032910;28;20049;-72
2022/01/07 12:28:23;;;;;;;5.65;1.58;;;;;;;;;;5032683;28;20104;-73
2022/01/07 12:30:50;;;;;;;4.53;0.93;;;;;;;;;;5032706;28;20068;-74
2022/01/07 12:33:17;;;;;;;5.55;1.00;;;;;;;;;;5028966;28;20464;-73
2022/01/07 12:35:43;;;;;;;4.93;0.68;;;;;;;;;;5032802;28;20053;-73
2022/01/07 12:38:10;;;;;;;3.50;0.57;;;;;;;;;;5034108;28;20049;-73
2022/01/07 12:40:37;;;;;;;2.13;0.90;;;;;;;;;;5034484;28;20049;-72
2022/01/07 12:43:03;;;;;;;2.03;0.30;;;;;;;;;;5033827;28;20401;-72
2022/01/07 12:45:31;;;;;;;1.33;0.40;;;;;;;;;;5031635;28;20053;-74
2022/01/07 12:47:57;;;;;;;3.50;0.40;;;;;;;;;;5033817;28;20057;-73
2022/01/07 12:50:24;;;;;;;1.08;0.38;;;;;;;;;;5032719;28;20053;-73
2022/01/07 12:52:51;;;;;;;2.88;0.30;;;;;;;;;;5033714;28;20099;-74
2022/01/07 12:55:18;;;;;;;4.10;0.38;;;;;;;;;;5033629;28;20507;-73
2022/01/07 12:57:47;;;;;;;4.10;0.60;;;;;;;;;;5032729;28;20080;-74
2022/01/07 13:00:22;;;;;;;3.10;0.98;;;;;;;;;;5033193;28;20543;-73
2022/01/07 13:02:50;;;;;;;5.90;0.82;;;;;;;;;;5031579;28;20061;-73
2022/01/07 13:05:17;;;;;;;;;;;;;;;;;;5033529;28;20485;-73
2022/01/07 13:07:44;;;;;;;1.17;0.40;;;;;;;;;;5031704;28;19990;-68
2022/01/07 13:10:11;;;;;;;5.47;1.00;;;;;;;;;;5032755;28;20045;-74
2022/01/07 13:12:38;;;;;;;1.70;0.60;;;;;;;;;;5033171;28;20072;-73
2022/01/07 13:15:05;;;;;;;6.30;0.90;;;;;;;;;;5033431;28;20041;-73
2022/01/07 13:17:32;;;;;;;2.03;0.63;;;;;;;;;;5033215;28;20045;-70
2022/01/07 13:19:59;;;;;;;5.03;1.17;;;;;;;;;;5031464;28;20341;-73
2022/01/07 13:22:28;;;;;;;2.70;0.70;;;;;;;;;;5033441;28;20123;-74
2022/01/07 13:24:54;;;;;;;2.92;1.27;;;;;;;;;;5030331;28;20046;-74
2022/01/07 13:27:21;;;;;;;4.15;1.40;;;;;;;;;;5032458;28;20061;-74
2022/01/07 13:29:48;;;;;;;43.22;28.95;;;;;;;;;;5032361;28;20088;-74
2022/01/07 13:32:22;;;;;;;86.63;57.23;;;;;;;;;;5032348;28;20050;-74
2022/01/07 13:34:49;;;;;;;13.88;8.20;;;;;;;;;;5032703;28;20092;-74
2022/01/07 13:37:18;;;;;;;33.22;19.45;;;;;;;;;;5031872;28;20049;-74
2022/01/07 13:39:51;;;;;;;13.82;7.05;;;;;;;;;;5032188;28;20068;-75
2022/01/07 13:42:23;;;;;;;12.38;7.38;;;;;;;;;;5032280;28;20053;-74
2022/01/07 13:44:56;;;;;;;5.85;2.70;;;;;;;;;;5032724;28;20163;-75
2022/01/07 13:47:28;;;;;;;3.83;1.17;;;;;;;;;;5032707;28;20100;-73
2022/01/07 13:50:22;;;;;;;5.18;1.30;;;;;;;;;;5032478;28;20505;-75
2022/01/07 13:52:48;;;;;;;3.70;1.00;;;;;;;;;;5032527;28;20111;-72
2022/01/07 13:55:28;;;;;;;4.85;1.30;;;;;;;;;;5032511;28;20041;-74
2022/01/07 13:58:04;;;;;;;4.00;0.90;;;;;;;;;;5032522;28;20053;-74
2022/01/07 14:00:35;;;;;;;3.45;1.15;;;;;;;;;;5032411;28;20056;-72
2022/01/07 14:03:03;;;;;;;3.10;1.20;;;;;;;;;;5032311;28;20200;-74
2022/01/07 14:05:29;;;;;;;4.47;0.85;;;;;;;;;;5031351;28;20083;-73
2022/01/07 14:07:56;;;;;;;3.60;1.00;;;;;;;;;;5032587;28;20052;-74
2022/01/07 14:10:28;;;;;;;4.43;1.00;;;;;;;;;;5032110;28;20053;-73
2022/01/07 14:12:59;;;;;;;4.97;1.08;;;;;;;;;;5032194;28;20049;-74
2022/01/07 14:15:26;;;;;;;2.50;1.20;;;;;;;;;;5031283;28;20458;-73
2022/01/07 14:18:03;;;;;;;7.13;2.08;;;;;;;;;;5031538;28;20095;-73
2022/01/07 14:20:49;;;;;;;4.43;1.60;;;;;;;;;;5031415;28;20045;-74
2022/01/07 14:23:17;;;;;;;7.47;2.63;;;;;;;;;;5030126;28;20053;-74
2022/01/07 14:25:44;;;;;;;12.35;3.92;;;;;;;;;;5027795;28;20048;-75
2022/01/07 14:28:12;;;;;;;6.50;2.03;;;;;;;;;;5031375;28;20413;-74
2022/01/07 14:30:39;;;;;;;3.55;1.05;;;;;;;;;;5031403;28;20053;-74
2022/01/07 14:33:06;;;;;;;5.88;2.38;;;;;;;;;;5031254;28;20053;-74
2022/01/07 14:35:32;;;;;;;2.85;0.90;;;;;;;;;;5031124;28;20038;-74
2022/01/07 14:37:59;;;;;;;3.42;1.10;;;;;;;;;;5031178;28;20445;-74
2022/01/07 14:40:25;;;;;;;3.67;1.60;;;;;;;;;;5011455;28;20054;-74
2022/01/07 14:42:51;;;;;;;6.88;2.38;;;;;;;;;;5028737;28;20046;-74
2022/01/07 14:45:18;;;;;;;6.07;2.30;;;;;;;;;;5032008;28;20049;-73
2022/01/07 14:47:44;;;;;;;2.67;1.60;;;;;;;;;;5030378;28;20057;-73
2022/01/07 14:50:11;;;;;;;6.45;1.52;;;;;;;;;;5031570;28;20631;-72
2022/01/07 14:52:53;;;;;;;3.90;2.33;;;;;;;;;;5029360;28;20111;-72
2022/01/07 14:55:24;;;;;;;0.80;0.80;;;;;;;;;;5023589;28;20041;-71
2022/01/07 14:57:51;;;;;;;1.38;1.27;;;;;;;;;;5031348;28;20045;-72